Terminal Aerodrome Forecast
Issued by NWS

Current Version | Previous Version | Graphics & Text | Print | Product List | Glossary On
Versions: 1 2 3 4 5 6 7 8 9 10 11 12 13 14 15 16 17 18 19 20 21 22 23 24 25
104
FTUS41 KRLX 241459 AAB
TAFCKB
TAF AMD
KCKB 241459Z 2415/2512 00000KT P6SM FEW250
     FM250100 00000KT P6SM SCT250
     FM250800 00000KT 5SM BR SCT250
     FM250900 00000KT 2SM BR SCT001
     FM251000 00000KT 1/2SM FG VV001=

USA.gov is the U.S. government's official web portal to all federal, state and local government web resources and services.